createdAt,value
2024-05-09T00:00:39.168Z,15.00
2024-05-09T00:03:08.374Z,15.00
2024-05-09T00:05:37.009Z,15.00
2024-05-09T00:08:04.859Z,14.90
2024-05-09T00:10:36.573Z,14.90
2024-05-09T00:13:06.772Z,14.90
2024-05-09T00:15:34.332Z,14.90
2024-05-09T00:18:02.507Z,14.80
2024-05-09T00:20:37.416Z,14.80
2024-05-09T00:23:07.870Z,14.70
2024-05-09T00:25:35.484Z,14.70
2024-05-09T00:28:02.969Z,14.60
2024-05-09T00:30:34.582Z,14.50
2024-05-09T00:33:05.192Z,14.50
2024-05-09T00:35:33.113Z,14.40
2024-05-09T00:38:00.128Z,14.30
2024-05-09T00:40:37.289Z,14.30
2024-05-09T00:43:06.971Z,14.20
2024-05-09T00:45:34.809Z,14.10
2024-05-09T00:48:04.993Z,14.10
2024-05-09T00:50:37.987Z,14.00
2024-05-09T00:53:07.048Z,14.00
2024-05-09T00:55:35.507Z,13.90
2024-05-09T00:58:04.696Z,13.80
2024-05-09T01:00:38.345Z,13.80
2024-05-09T01:03:08.209Z,13.70
2024-05-09T01:05:35.783Z,13.70
2024-05-09T01:08:03.096Z,13.70
2024-05-09T01:10:34.547Z,13.60
2024-05-09T01:13:04.120Z,13.60
2024-05-09T01:15:31.232Z,13.60
2024-05-09T01:17:58.766Z,13.50
2024-05-09T01:20:36.807Z,13.50
2024-05-09T01:23:09.703Z,13.50
2024-05-09T01:25:37.309Z,13.40
2024-05-09T01:28:04.445Z,13.30
2024-05-09T01:30:35.499Z,13.30
2024-05-09T01:33:05.955Z,13.30
2024-05-09T01:35:34.298Z,13.20
2024-05-09T01:38:01.219Z,13.20
2024-05-09T01:40:36.510Z,13.10
2024-05-09T01:43:06.291Z,13.00
2024-05-09T01:45:33.203Z,12.90
2024-05-09T01:48:00.261Z,12.90
2024-05-09T01:52:56.902Z,12.80
2024-05-09T01:55:23.780Z,12.80
2024-05-09T01:57:50.576Z,12.70
2024-05-09T02:00:26.222Z,12.70
2024-05-09T02:03:01.571Z,12.60
2024-05-09T02:05:28.640Z,12.50
2024-05-09T02:07:55.456Z,12.50
2024-05-09T02:10:26.562Z,12.40
2024-05-09T02:12:59.014Z,12.40
2024-05-09T02:15:25.772Z,12.30
2024-05-09T02:17:52.643Z,12.30
2024-05-09T02:20:29.959Z,12.20
2024-05-09T02:23:03.826Z,12.20
2024-05-09T02:25:31.088Z,12.10
2024-05-09T02:27:57.894Z,12.10
2024-05-09T02:30:34.894Z,12.00
2024-05-09T02:33:06.585Z,12.00
2024-05-09T02:35:33.693Z,11.90
2024-05-09T02:38:00.890Z,11.90
2024-05-09T02:40:35.794Z,11.90
2024-05-09T02:43:05.680Z,11.80
2024-05-09T02:45:32.660Z,11.70
2024-05-09T02:47:59.701Z,11.60
2024-05-09T02:50:34.271Z,11.60
2024-05-09T02:53:05.684Z,11.50
2024-05-09T02:55:32.776Z,11.50
2024-05-09T02:57:59.633Z,11.40
2024-05-09T03:00:34.732Z,11.40
2024-05-09T03:03:08.342Z,11.30
2024-05-09T03:05:36.964Z,11.30
2024-05-09T03:08:04.500Z,11.30
2024-05-09T03:10:36.076Z,11.20
2024-05-09T03:13:13.900Z,11.20
2024-05-09T03:15:42.516Z,11.10
2024-05-09T03:18:09.949Z,11.10
2024-05-09T03:20:38.319Z,11.10
2024-05-09T03:23:07.860Z,11.10
2024-05-09T03:25:35.771Z,11.00
2024-05-09T03:28:02.741Z,11.00
2024-05-09T03:30:38.748Z,11.00
2024-05-09T03:33:13.974Z,10.90
2024-05-09T03:35:42.072Z,10.90
2024-05-09T03:38:09.169Z,10.90
2024-05-09T03:40:36.055Z,10.80
2024-05-09T03:43:02.901Z,10.80
2024-05-09T03:45:29.745Z,10.80
2024-05-09T03:47:56.724Z,10.80
2024-05-09T03:50:30.120Z,10.80
2024-05-09T03:53:01.863Z,10.70
2024-05-09T03:55:28.998Z,10.70
2024-05-09T03:57:55.815Z,10.70
2024-05-09T04:00:31.029Z,10.70
2024-05-09T04:03:05.908Z,10.70
2024-05-09T04:05:34.955Z,10.70
2024-05-09T04:08:02.225Z,10.80
2024-05-09T04:10:33.580Z,10.70
2024-05-09T04:13:02.301Z,10.70
2024-05-09T04:15:29.369Z,10.70
2024-05-09T04:17:56.501Z,10.80
2024-05-09T04:20:34.259Z,10.70
2024-05-09T04:23:06.822Z,10.80
2024-05-09T04:25:34.131Z,10.80
2024-05-09T04:28:01.050Z,10.80
2024-05-09T04:30:36.470Z,10.90
2024-05-09T04:33:08.118Z,10.90
2024-05-09T04:35:36.901Z,10.90
2024-05-09T04:38:04.258Z,10.90
2024-05-09T04:40:34.614Z,11.00
2024-05-09T04:43:04.240Z,11.00
2024-05-09T04:45:31.272Z,11.10
2024-05-09T04:47:58.575Z,11.20
2024-05-09T04:50:34.203Z,11.20
2024-05-09T04:53:05.645Z,11.30
2024-05-09T04:55:33.311Z,11.30
2024-05-09T04:58:00.109Z,11.40
2024-05-09T05:00:34.722Z,11.50
2024-05-09T05:03:07.330Z,11.50
2024-05-09T05:05:40.198Z,11.60
2024-05-09T05:08:18.878Z,11.70
2024-05-09T05:10:46.963Z,11.80
2024-05-09T05:13:22.737Z,11.80
2024-05-09T05:15:56.821Z,11.90
2024-05-09T05:18:25.979Z,11.90
2024-05-09T05:20:53.070Z,12.00
2024-05-09T05:23:20.949Z,12.00
2024-05-09T05:25:49.212Z,12.10
2024-05-09T05:28:16.827Z,12.10
2024-05-09T05:30:43.721Z,12.10
2024-05-09T05:33:12.320Z,12.10
2024-05-09T05:35:40.259Z,12.20
2024-05-09T05:38:08.132Z,12.30
2024-05-09T05:40:38.314Z,12.30
2024-05-09T05:43:10.452Z,12.30
2024-05-09T05:45:38.201Z,12.40
2024-05-09T05:48:06.949Z,12.50
2024-05-09T05:50:37.130Z,12.50
2024-05-09T05:53:07.556Z,12.60
2024-05-09T05:55:35.358Z,12.60
2024-05-09T05:58:02.856Z,12.70
2024-05-09T06:00:37.369Z,12.70
2024-05-09T06:03:06.363Z,12.80
2024-05-09T06:05:33.522Z,12.90
2024-05-09T06:08:00.659Z,13.00
2024-05-09T06:10:37.119Z,13.10
2024-05-09T06:13:06.675Z,13.10
2024-05-09T06:15:33.451Z,13.20
2024-05-09T06:18:00.588Z,13.30
2024-05-09T06:20:34.938Z,13.40
2024-05-09T06:23:04.899Z,13.40
2024-05-09T06:25:32.325Z,13.50
2024-05-09T06:28:03.062Z,13.60
2024-05-09T06:30:37.533Z,13.70
2024-05-09T06:33:09.024Z,13.90
2024-05-09T06:35:36.804Z,14.00
2024-05-09T06:38:04.091Z,14.10
2024-05-09T06:40:37.250Z,14.20
2024-05-09T06:43:11.323Z,14.40
2024-05-09T06:45:39.658Z,14.50
2024-05-09T06:48:07.373Z,14.70
2024-05-09T06:50:37.893Z,14.80
2024-05-09T06:53:06.567Z,14.90
2024-05-09T06:55:33.362Z,15.20
2024-05-09T06:58:00.201Z,15.30
2024-05-09T07:00:34.834Z,15.40
2024-05-09T07:03:15.544Z,15.60
2024-05-09T07:05:45.383Z,15.80
2024-05-09T07:08:12.734Z,16.00
2024-05-09T07:10:39.665Z,16.20
2024-05-09T07:13:10.351Z,16.40
2024-05-09T07:15:37.398Z,16.60
2024-05-09T07:18:18.478Z,16.70
2024-05-09T07:20:47.406Z,16.80
2024-05-09T07:23:15.366Z,17.00
2024-05-09T07:25:42.847Z,17.10
2024-05-09T07:28:15.089Z,17.30
2024-05-09T07:30:43.107Z,17.40
2024-05-09T07:33:10.239Z,17.50
2024-05-09T07:35:37.353Z,17.60
2024-05-09T07:38:04.448Z,17.70
2024-05-09T07:40:35.701Z,17.70
2024-05-09T07:43:16.041Z,17.80
2024-05-09T07:45:51.378Z,17.80
2024-05-09T07:53:39.068Z,18.00
2024-05-09T07:56:09.879Z,18.10
2024-05-09T07:58:37.713Z,18.20
2024-05-09T08:01:05.246Z,18.20
2024-05-09T08:03:32.393Z,18.20
2024-05-09T08:05:59.236Z,18.30
2024-05-09T08:08:26.075Z,18.30
2024-05-09T08:10:52.952Z,18.40
2024-05-09T08:13:19.779Z,18.50
2024-05-09T08:15:46.640Z,18.60
2024-05-09T08:18:13.527Z,18.70
2024-05-09T08:20:42.692Z,18.80
2024-05-09T08:23:11.215Z,18.80
2024-05-09T08:25:38.757Z,19.00
2024-05-09T08:28:05.915Z,19.10
2024-05-09T08:30:36.664Z,19.10
2024-05-09T08:33:06.504Z,19.20
2024-05-09T08:35:34.315Z,19.30
2024-05-09T08:38:03.426Z,19.40
2024-05-09T08:40:35.651Z,19.50
2024-05-09T08:43:14.443Z,19.60
2024-05-09T08:45:45.356Z,19.80
2024-05-09T08:48:15.734Z,19.80
2024-05-09T08:50:43.797Z,19.90
2024-05-09T08:53:14.794Z,20.00
2024-05-09T08:55:43.621Z,20.10
2024-05-09T08:58:16.687Z,20.30
2024-05-09T09:00:44.998Z,20.40
2024-05-09T09:03:18.024Z,20.60
2024-05-09T09:06:21.352Z,20.80
2024-05-09T09:08:49.374Z,21.00
2024-05-09T09:11:16.131Z,21.20
2024-05-09T09:13:42.910Z,21.40
2024-05-09T09:16:09.817Z,21.60
2024-05-09T09:18:36.804Z,21.80
2024-05-09T09:21:03.848Z,22.10
2024-05-09T09:23:30.874Z,22.20
2024-05-09T09:26:01.209Z,22.30
2024-05-09T09:28:30.503Z,22.60
2024-05-09T09:31:04.540Z,22.90
2024-05-09T09:33:32.538Z,23.10
2024-05-09T09:36:00.342Z,23.20
2024-05-09T09:38:30.082Z,23.40
2024-05-09T09:40:56.985Z,23.40
2024-05-09T09:43:24.065Z,23.60
2024-05-09T09:45:53.250Z,23.80
2024-05-09T09:48:22.406Z,24.00
2024-05-09T09:50:52.285Z,24.20
2024-05-09T09:53:19.803Z,24.30
2024-05-09T09:55:47.029Z,24.30
2024-05-09T09:58:17.054Z,24.30
2024-05-09T10:00:44.866Z,24.50
2024-05-09T10:03:11.941Z,24.70
2024-05-09T10:05:42.064Z,25.00
2024-05-09T10:08:12.330Z,25.30
2024-05-09T10:10:39.932Z,25.50
2024-05-09T10:13:07.894Z,25.70
2024-05-09T10:15:51.864Z,25.90
2024-05-09T10:18:28.068Z,26.20
2024-05-09T10:20:57.145Z,26.30
2024-05-09T10:23:32.097Z,26.60
2024-05-09T10:26:00.382Z,26.70
2024-05-09T10:28:31.780Z,27.00
2024-05-09T10:31:11.916Z,27.30
2024-05-09T10:33:40.705Z,27.60
2024-05-09T10:36:14.796Z,27.90
2024-05-09T10:38:42.938Z,28.00
2024-05-09T10:41:10.571Z,28.00
2024-05-09T10:43:40.892Z,27.80
2024-05-09T10:46:08.752Z,27.70
2024-05-09T10:48:39.826Z,27.50
2024-05-09T10:51:07.746Z,27.50
2024-05-09T10:53:45.141Z,27.60
2024-05-09T10:56:13.587Z,27.70
2024-05-09T10:58:40.516Z,28.00
2024-05-09T11:01:09.039Z,28.20
2024-05-09T11:03:37.302Z,28.50
2024-05-09T11:06:05.404Z,28.80
2024-05-09T11:08:32.933Z,29.00
2024-05-09T11:11:00.282Z,29.00
2024-05-09T11:13:31.506Z,29.00
2024-05-09T11:16:00.317Z,28.90
2024-05-09T11:18:31.749Z,28.60
2024-05-09T11:21:01.771Z,28.40
2024-05-09T11:23:31.955Z,28.30
2024-05-09T11:25:59.437Z,28.40
2024-05-09T11:28:28.707Z,28.50
2024-05-09T11:31:07.578Z,28.60
2024-05-09T11:33:38.936Z,28.60
2024-05-09T11:36:07.100Z,28.80
2024-05-09T11:38:34.005Z,29.00
2024-05-09T11:41:01.550Z,29.20
2024-05-09T11:43:28.411Z,29.30
2024-05-09T11:45:56.851Z,29.70
2024-05-09T11:48:24.552Z,30.00
2024-05-09T11:50:51.646Z,30.40
2024-05-09T11:53:18.375Z,30.50
2024-05-09T11:55:45.171Z,30.60
2024-05-09T11:58:13.740Z,30.60
2024-05-09T12:00:40.618Z,30.60
2024-05-09T12:03:07.529Z,30.50
2024-05-09T12:05:34.783Z,30.30
2024-05-09T12:08:02.139Z,30.20
2024-05-09T12:10:33.609Z,30.10
2024-05-09T12:13:04.902Z,29.90
2024-05-09T12:15:33.992Z,29.60
2024-05-09T12:18:03.576Z,29.40
2024-05-09T12:20:36.944Z,29.30
2024-05-09T12:23:06.622Z,29.40
2024-05-09T12:25:33.662Z,29.70
2024-05-09T12:28:00.807Z,29.80
2024-05-09T12:30:36.137Z,30.30
2024-05-09T12:33:10.572Z,30.40
2024-05-09T12:35:38.332Z,30.40
2024-05-09T12:38:05.278Z,30.40
2024-05-09T12:40:36.754Z,30.40
2024-05-09T12:43:07.456Z,30.40
2024-05-09T12:45:35.108Z,30.30
2024-05-09T12:48:02.100Z,30.30
2024-05-09T12:50:33.200Z,30.40
2024-05-09T12:53:02.161Z,30.40
2024-05-09T12:55:33.962Z,30.80
2024-05-09T12:58:08.074Z,31.10
2024-05-09T13:00:35.347Z,31.30
2024-05-09T13:03:02.325Z,31.40
2024-05-09T13:05:29.802Z,31.70
2024-05-09T13:07:57.204Z,32.00
2024-05-09T13:10:32.093Z,32.20
2024-05-09T13:13:01.500Z,32.50
2024-05-09T13:15:30.461Z,32.90
2024-05-09T13:18:01.540Z,33.30
2024-05-09T13:20:33.573Z,33.50
2024-05-09T13:23:07.320Z,33.80
2024-05-09T13:25:35.542Z,34.00
2024-05-09T13:28:03.783Z,34.20
2024-05-09T13:30:39.050Z,34.30
2024-05-09T13:33:13.095Z,34.40
2024-05-09T13:35:47.696Z,34.50
2024-05-09T13:38:18.558Z,34.50
2024-05-09T13:40:45.736Z,34.70
2024-05-09T13:43:12.836Z,34.60
2024-05-09T13:45:39.809Z,34.60
2024-05-09T13:48:07.291Z,34.60
2024-05-09T13:50:36.359Z,34.60
2024-05-09T13:53:08.460Z,34.60
2024-05-09T13:55:38.793Z,34.50
2024-05-09T13:58:06.528Z,34.10
2024-05-09T14:00:44.025Z,33.60
2024-05-09T14:03:16.339Z,33.10
2024-05-09T14:05:44.458Z,32.30
2024-05-09T14:08:11.924Z,31.70
2024-05-09T14:10:44.526Z,31.00
2024-05-09T14:13:12.171Z,30.70
2024-05-09T14:15:39.178Z,30.60
2024-05-09T14:18:10.182Z,30.80
2024-05-09T14:20:39.175Z,31.10
2024-05-09T14:23:06.003Z,31.10
2024-05-09T14:25:36.625Z,30.90
2024-05-09T14:28:06.251Z,30.60
2024-05-09T14:30:37.262Z,30.20
2024-05-09T14:33:09.419Z,29.90
2024-05-09T14:35:39.807Z,29.60
2024-05-09T14:38:07.944Z,29.70
2024-05-09T14:40:41.767Z,29.80
2024-05-09T14:43:12.063Z,29.90
2024-05-09T14:45:39.527Z,30.20
2024-05-09T14:48:07.583Z,30.40
2024-05-09T14:50:38.232Z,30.50
2024-05-09T14:53:07.819Z,30.60
2024-05-09T14:55:37.395Z,30.50
2024-05-09T14:58:09.356Z,30.80
2024-05-09T15:00:42.279Z,31.10
2024-05-09T15:03:12.618Z,31.20
2024-05-09T15:05:39.916Z,31.30
2024-05-09T15:08:08.990Z,31.60
2024-05-09T15:10:37.107Z,31.80
2024-05-09T15:13:05.367Z,32.00
2024-05-09T15:15:33.051Z,32.10
2024-05-09T15:18:00.500Z,32.00
2024-05-09T15:20:34.342Z,31.90
2024-05-09T15:23:04.421Z,31.80
2024-05-09T15:25:31.343Z,31.80
2024-05-09T15:27:58.279Z,31.70
2024-05-09T15:32:54.885Z,31.30
2024-05-09T15:35:21.722Z,31.40
2024-05-09T15:37:48.655Z,31.50
2024-05-09T15:40:25.955Z,31.50
2024-05-09T15:43:02.073Z,31.60
2024-05-09T15:45:29.318Z,31.70
2024-05-09T15:47:57.133Z,31.70
2024-05-09T15:50:35.195Z,31.80
2024-05-09T15:53:06.582Z,31.80
2024-05-09T15:55:34.501Z,31.80
2024-05-09T15:58:02.260Z,31.60
2024-05-09T16:00:37.323Z,31.30
2024-05-09T16:03:08.317Z,30.90
2024-05-09T16:05:35.347Z,30.50
2024-05-09T16:08:02.659Z,30.30
2024-05-09T16:10:33.023Z,30.10
2024-05-09T16:13:02.179Z,30.00
2024-05-09T16:15:29.514Z,30.00
2024-05-09T16:17:56.766Z,30.00
2024-05-09T16:22:54.523Z,29.90
2024-05-09T16:25:21.482Z,29.90
2024-05-09T16:27:48.656Z,29.80
2024-05-09T16:30:24.655Z,29.80
2024-05-09T16:32:58.681Z,29.90
2024-05-09T16:35:25.565Z,29.80
2024-05-09T16:37:52.436Z,29.70
2024-05-09T16:40:29.280Z,29.70
2024-05-09T16:43:03.850Z,29.60
2024-05-09T16:45:30.945Z,29.60
2024-05-09T16:48:00.068Z,29.60
2024-05-09T16:50:32.541Z,29.50
2024-05-09T16:53:02.086Z,29.40
2024-05-09T16:55:29.199Z,29.30
2024-05-09T16:57:56.774Z,29.20
2024-05-09T17:00:34.965Z,29.20
2024-05-09T17:03:08.996Z,29.10
2024-05-09T17:05:36.508Z,28.90
2024-05-09T17:08:04.049Z,28.80
2024-05-09T17:10:33.804Z,28.70
2024-05-09T17:13:07.187Z,28.40
2024-05-09T17:15:36.268Z,28.20
2024-05-09T17:18:04.440Z,28.00
2024-05-09T17:20:34.779Z,27.90
2024-05-09T17:23:05.158Z,27.80
2024-05-09T17:25:32.760Z,27.50
2024-05-09T17:28:06.086Z,27.30
2024-05-09T17:30:36.825Z,27.10
2024-05-09T17:33:06.901Z,26.90
2024-05-09T17:35:34.794Z,26.80
2024-05-09T17:38:01.899Z,26.60
2024-05-09T17:40:33.657Z,26.50
2024-05-09T17:43:04.477Z,26.40
2024-05-09T17:45:32.435Z,26.20
2024-05-09T17:47:59.907Z,26.00
2024-05-09T17:50:34.948Z,25.90
2024-05-09T17:53:04.512Z,25.70
2024-05-09T17:55:31.661Z,25.50
2024-05-09T17:57:58.629Z,25.40
2024-05-09T18:00:36.438Z,25.20
2024-05-09T18:03:07.668Z,25.00
2024-05-09T18:05:36.380Z,24.90
2024-05-09T18:08:04.137Z,24.70
2024-05-09T18:10:36.657Z,24.50
2024-05-09T18:13:07.125Z,24.40
2024-05-09T18:15:34.419Z,24.30
2024-05-09T18:18:02.440Z,24.20
2024-05-09T18:20:38.133Z,24.00
2024-05-09T18:23:11.047Z,24.00
2024-05-09T18:25:37.937Z,23.90
2024-05-09T18:28:05.696Z,23.80
2024-05-09T18:30:36.044Z,23.70
2024-05-09T18:33:06.399Z,23.60
2024-05-09T18:35:34.706Z,23.50
2024-05-09T18:38:01.607Z,23.50
2024-05-09T18:40:34.132Z,23.40
2024-05-09T18:43:05.509Z,23.30
2024-05-09T18:45:33.932Z,23.30
2024-05-09T18:48:01.136Z,23.20
2024-05-09T18:50:34.605Z,23.10
2024-05-09T18:53:12.265Z,23.00
2024-05-09T18:55:40.872Z,22.90
2024-05-09T18:58:07.739Z,22.80
2024-05-09T19:00:37.899Z,22.60
2024-05-09T19:03:09.997Z,22.50
2024-05-09T19:05:39.278Z,22.40
2024-05-09T19:08:07.525Z,22.30
2024-05-09T19:10:35.780Z,22.10
2024-05-09T19:13:08.280Z,22.00
2024-05-09T19:15:39.355Z,21.90
2024-05-09T19:18:07.330Z,21.70
2024-05-09T19:20:36.099Z,21.60
2024-05-09T19:23:06.432Z,21.50
2024-05-09T19:25:34.454Z,21.30
2024-05-09T19:28:01.641Z,21.20
2024-05-09T19:30:37.087Z,21.00
2024-05-09T19:33:08.736Z,20.90
2024-05-09T19:35:35.982Z,20.80
2024-05-09T19:38:02.845Z,20.60
2024-05-09T19:40:32.354Z,20.50
2024-05-09T19:43:02.659Z,20.40
2024-05-09T19:45:30.258Z,20.30
2024-05-09T19:47:57.498Z,20.20
2024-05-09T19:50:32.453Z,20.00
2024-05-09T19:53:07.492Z,19.90
2024-05-09T19:59:22.472Z,19.70
2024-05-09T20:01:49.336Z,19.50
2024-05-09T20:04:16.438Z,19.40
2024-05-09T20:06:43.301Z,19.30
2024-05-09T20:09:10.147Z,19.10
2024-05-09T20:11:38.801Z,19.00
2024-05-09T20:14:05.769Z,19.00
2024-05-09T20:16:32.588Z,18.90
2024-05-09T20:18:59.667Z,18.80
2024-05-09T20:21:29.091Z,18.70
2024-05-09T20:23:56.174Z,18.60
2024-05-09T20:26:22.977Z,18.40
2024-05-09T20:28:51.990Z,18.40
2024-05-09T20:31:22.752Z,18.30
2024-05-09T20:33:49.742Z,18.20
2024-05-09T20:36:16.600Z,18.10
2024-05-09T20:38:43.451Z,18.10
2024-05-09T20:41:10.258Z,18.10
2024-05-09T20:43:37.039Z,18.00
2024-05-09T20:46:04.181Z,18.00
2024-05-09T20:48:31.090Z,18.00
2024-05-09T20:50:58.035Z,17.90
2024-05-09T20:53:24.772Z,17.90
2024-05-09T20:55:51.531Z,17.80
2024-05-09T20:58:18.341Z,17.80
2024-05-09T21:00:46.330Z,17.80
2024-05-09T21:03:16.151Z,17.70
2024-05-09T21:05:44.126Z,17.70
2024-05-09T21:08:11.133Z,17.60
2024-05-09T21:10:38.241Z,17.50
2024-05-09T21:13:06.616Z,17.40
2024-05-09T21:15:34.503Z,17.40
2024-05-09T21:18:01.477Z,17.40
2024-05-09T21:20:31.411Z,17.30
2024-05-09T21:23:00.284Z,17.20
2024-05-09T21:25:27.223Z,17.10
2024-05-09T21:27:54.298Z,17.20
2024-05-09T21:30:31.719Z,17.20
2024-05-09T21:33:09.529Z,17.10
2024-05-09T21:35:37.625Z,17.10
2024-05-09T21:38:04.713Z,17.20
2024-05-09T21:40:34.858Z,17.20
2024-05-09T21:43:04.026Z,17.20
2024-05-09T21:45:31.039Z,17.20
2024-05-09T21:47:58.079Z,17.10
2024-05-09T21:50:32.283Z,17.00
2024-05-09T21:53:06.574Z,17.00
2024-05-09T21:55:33.620Z,17.00
2024-05-09T21:58:00.611Z,16.90
2024-05-09T22:00:34.789Z,16.90
2024-05-09T22:03:05.127Z,16.90
2024-05-09T22:05:32.408Z,16.90
2024-05-09T22:07:59.621Z,17.00
2024-05-09T22:10:32.608Z,17.00
2024-05-09T22:13:02.155Z,17.00
2024-05-09T22:15:36.989Z,17.00
2024-05-09T22:18:05.928Z,17.00
2024-05-09T22:20:37.872Z,16.80
2024-05-09T22:23:06.838Z,16.80
2024-05-09T22:25:34.189Z,16.80
2024-05-09T22:28:02.205Z,16.90
2024-05-09T22:32:59.127Z,16.80
2024-05-09T22:35:26.301Z,16.80
2024-05-09T22:37:53.471Z,16.70
2024-05-09T22:40:29.016Z,16.60
2024-05-09T22:43:05.487Z,16.40
2024-05-09T22:45:32.606Z,16.30
2024-05-09T22:47:59.861Z,16.20
2024-05-09T22:50:30.833Z,16.10
2024-05-09T22:53:00.907Z,16.10
2024-05-09T22:55:27.881Z,15.90
2024-05-09T22:57:54.900Z,15.90
2024-05-09T23:00:29.454Z,15.80
2024-05-09T23:03:02.370Z,15.60
2024-05-09T23:05:30.277Z,15.60
2024-05-09T23:07:57.204Z,15.50
2024-05-09T23:10:32.153Z,15.40
2024-05-09T23:13:03.671Z,15.40
2024-05-09T23:15:30.946Z,15.30
2024-05-09T23:17:58.573Z,15.20
2024-05-09T23:20:35.850Z,15.10
2024-05-09T23:23:06.891Z,15.10
2024-05-09T23:25:34.295Z,15.00
2024-05-09T23:28:01.264Z,15.00
2024-05-09T23:30:34.727Z,14.90
2024-05-09T23:33:06.426Z,14.90
2024-05-09T23:35:33.347Z,14.80
2024-05-09T23:38:00.197Z,14.70
2024-05-09T23:40:37.417Z,14.70
2024-05-09T23:43:07.743Z,14.60
2024-05-09T23:45:34.996Z,14.50
2024-05-09T23:48:02.175Z,14.50
2024-05-09T23:52:58.700Z,14.40
2024-05-09T23:55:25.587Z,14.30
2024-05-09T23:57:52.519Z,14.30
